Terminal Aerodrome Forecast
Issued by NWS

Home | Current Version | Previous Version | Text Only | Print | Product List | Glossary On
Versions: 1 2 3 4 5 6 7 8 9 10 11 12 13 14 15 16 17 18 19 20 21 22 23 24 25 26 27 28 29 30 31 32 33 34 35 36 37 38 39 40 41 42 43 44 45 46
000
FTUS45 KBOI 122207 AAA
TAFMYL
TAF AMD
KMYL 122207Z 1222/1318 VRB03KT P6SM OVC050
     FM131000 VRB03KT P6SM VCSH OVC035
      TEMPO 1310/1314 2SM -SHSN OVC012
     FM131400 VRB03KT 3SM BR SCT002=

USA.gov is the U.S. government's official web portal to all federal, state and local government web resources and services.